KTPA/TPA METAR and TAF weather

Enter ICAO airport designator
Station Type Date Time Source
KTPA METAR 2020/01/27 13:53 UTC NOAA

KTPA 271353Z VRB04KT 10SM OVC070 14/08 A2997 RMK AO2 SLP148 T01440078 $


Station Type Date Time Source
KTPA Decoded METAR 2020/01/27 13:53 UTC NOAA

TAMPA INTERNATIONAL AIRPORT , FL, United States (KTPA) 27-58N 082-32W 11M
Jan 27, 2020 - 08:53 AM EST / 2020.01.27 1353 UTC
Wind: Variable at 5 MPH (4 KT):0
Visibility: 10 mile(s):0
Sky conditions: overcast
Temperature: 57.9 F (14.4 C)
Dew Point: 46.0 F (7.8 C)
Relative Humidity: 64%
Pressure (altimeter): 29.97 in. Hg (1014 hPa)
ob: KTPA 271353Z VRB04KT 10SM OVC070 14/08 A2997 RMK AO2 SLP148 T01440078
cycle: 14

Station Type Date Time Source
KTPA TAF 2020/01/27 12:33 UTC NOAA

TAF KTPA 271130Z 2712/2818 15006KT P6SM BKN100
FM271500 17007KT P6SM BKN070
FM271900 21008KT P6SM VCSH OVC050
FM280000 06005KT P6SM OVC050
FM281400 04007KT P6SM SCT050

Example: see airport list